sensor_id;sensor_type;location;lat;lon;timestamp;pressure;altitude;pressure_sealevel;temperature;humidity
3748;BME280;1889;50.058;8.688;2023-04-24T00:01:27;99059.72;;;16.31;59.87
3748;BME280;1889;50.058;8.688;2023-04-24T00:03:57;99055.87;;;16.36;59.76
3748;BME280;1889;50.058;8.688;2023-04-24T00:06:27;99053.55;;;16.30;59.92
3748;BME280;1889;50.058;8.688;2023-04-24T00:09:01;99047.28;;;16.01;61.09
3748;BME280;1889;50.058;8.688;2023-04-24T00:11:30;99048.49;;;15.96;61.62
3748;BME280;1889;50.058;8.688;2023-04-24T00:14:00;99048.49;;;15.96;61.62
3748;BME280;1889;50.058;8.688;2023-04-24T00:16:29;99047.00;;;15.68;62.80
3748;BME280;1889;50.058;8.688;2023-04-24T00:18:58;99042.98;;;15.99;62.11
3748;BME280;1889;50.058;8.688;2023-04-24T00:21:28;99042.98;;;15.99;62.11
3748;BME280;1889;50.058;8.688;2023-04-24T00:23:58;99034.87;;;16.02;61.73
3748;BME280;1889;50.058;8.688;2023-04-24T00:26:28;99035.03;;;15.99;61.52
3748;BME280;1889;50.058;8.688;2023-04-24T00:28:57;99035.03;;;15.99;61.52
3748;BME280;1889;50.058;8.688;2023-04-24T00:31:26;99033.42;;;15.96;61.59
3748;BME280;1889;50.058;8.688;2023-04-24T00:33:56;99034.48;;;16.01;61.27
3748;BME280;1889;50.058;8.688;2023-04-24T00:36:25;99022.66;;;16.14;60.75
3748;BME280;1889;50.058;8.688;2023-04-24T00:38:55;99025.64;;;16.23;60.53
3748;BME280;1889;50.058;8.688;2023-04-24T00:41:27;99020.92;;;15.83;61.10
3748;BME280;1889;50.058;8.688;2023-04-24T00:43:56;99023.66;;;15.81;61.18
3748;BME280;1889;50.058;8.688;2023-04-24T00:46:26;99029.55;;;15.63;61.55
3748;BME280;1889;50.058;8.688;2023-04-24T00:48:56;99018.52;;;15.55;61.23
3748;BME280;1889;50.058;8.688;2023-04-24T00:51:25;99018.52;;;15.55;61.23
3748;BME280;1889;50.058;8.688;2023-04-24T00:53:55;99016.95;;;15.83;60.62
3748;BME280;1889;50.058;8.688;2023-04-24T00:56:24;99005.57;;;15.65;60.92
3748;BME280;1889;50.058;8.688;2023-04-24T00:58:54;99002.94;;;15.81;59.96
3748;BME280;1889;50.058;8.688;2023-04-24T01:01:24;99002.94;;;15.81;59.96
3748;BME280;1889;50.058;8.688;2023-04-24T01:03:54;99003.89;;;15.64;60.57
3748;BME280;1889;50.058;8.688;2023-04-24T01:06:27;99004.99;;;15.36;61.18
3748;BME280;1889;50.058;8.688;2023-04-24T01:08:58;99007.61;;;15.44;61.50
3748;BME280;1889;50.058;8.688;2023-04-24T01:11:29;99007.56;;;15.37;61.62
3748;BME280;1889;50.058;8.688;2023-04-24T01:13:59;99001.27;;;15.71;60.56
3748;BME280;1889;50.058;8.688;2023-04-24T01:16:28;98997.04;;;15.51;60.90
3748;BME280;1889;50.058;8.688;2023-04-24T01:18:58;98997.04;;;15.51;60.90
3748;BME280;1889;50.058;8.688;2023-04-24T01:21:29;98996.25;;;15.58;60.86
3748;BME280;1889;50.058;8.688;2023-04-24T01:23:59;98997.32;;;15.78;60.06
3748;BME280;1889;50.058;8.688;2023-04-24T01:26:28;98997.44;;;15.84;59.98
3748;BME280;1889;50.058;8.688;2023-04-24T01:28:58;98988.77;;;15.49;60.95
3748;BME280;1889;50.058;8.688;2023-04-24T01:31:28;98988.77;;;15.49;60.95
3748;BME280;1889;50.058;8.688;2023-04-24T01:33:57;98987.52;;;15.40;61.28
3748;BME280;1889;50.058;8.688;2023-04-24T01:36:27;98989.83;;;15.46;60.88
3748;BME280;1889;50.058;8.688;2023-04-24T01:38:57;98989.83;;;15.46;60.88
3748;BME280;1889;50.058;8.688;2023-04-24T01:41:27;98986.95;;;15.02;62.68
3748;BME280;1889;50.058;8.688;2023-04-24T01:43:57;98993.86;;;15.13;62.97
3748;BME280;1889;50.058;8.688;2023-04-24T01:46:26;98993.86;;;15.13;62.97
3748;BME280;1889;50.058;8.688;2023-04-24T01:48:56;99001.59;;;15.25;62.51
3748;BME280;1889;50.058;8.688;2023-04-24T01:51:26;98995.41;;;15.33;62.19
3748;BME280;1889;50.058;8.688;2023-04-24T01:53:55;98996.41;;;15.39;62.08
3748;BME280;1889;50.058;8.688;2023-04-24T01:56:25;98989.23;;;15.57;61.21
3748;BME280;1889;50.058;8.688;2023-04-24T01:58:54;98989.23;;;15.57;61.21
3748;BME280;1889;50.058;8.688;2023-04-24T02:01:24;98984.69;;;14.79;63.63
3748;BME280;1889;50.058;8.688;2023-04-24T02:03:54;98981.86;;;15.15;62.85
3748;BME280;1889;50.058;8.688;2023-04-24T02:06:23;98981.86;;;15.15;62.85
3748;BME280;1889;50.058;8.688;2023-04-24T02:08:52;98983.43;;;15.26;62.33
3748;BME280;1889;50.058;8.688;2023-04-24T02:11:22;98981.01;;;14.90;63.20
3748;BME280;1889;50.058;8.688;2023-04-24T02:13:52;98981.01;;;14.90;63.20
3748;BME280;1889;50.058;8.688;2023-04-24T02:16:21;98980.95;;;15.07;62.95
3748;BME280;1889;50.058;8.688;2023-04-24T02:18:50;98981.21;;;15.34;62.00
3748;BME280;1889;50.058;8.688;2023-04-24T02:21:20;98985.05;;;15.13;62.90
3748;BME280;1889;50.058;8.688;2023-04-24T02:23:49;98977.39;;;14.75;63.99
3748;BME280;1889;50.058;8.688;2023-04-24T02:26:18;98977.39;;;14.75;63.99
3748;BME280;1889;50.058;8.688;2023-04-24T02:28:48;98984.84;;;14.76;63.48
3748;BME280;1889;50.058;8.688;2023-04-24T02:31:17;98984.84;;;14.76;63.48
3748;BME280;1889;50.058;8.688;2023-04-24T02:33:46;98983.56;;;14.33;64.58
3748;BME280;1889;50.058;8.688;2023-04-24T02:36:16;98986.42;;;14.37;64.99
3748;BME280;1889;50.058;8.688;2023-04-24T02:38:45;98976.62;;;14.04;66.32
3748;BME280;1889;50.058;8.688;2023-04-24T02:41:14;98976.62;;;14.04;66.32
3748;BME280;1889;50.058;8.688;2023-04-24T02:43:44;98989.72;;;14.25;65.50
3748;BME280;1889;50.058;8.688;2023-04-24T02:46:13;98989.72;;;14.25;65.50
3748;BME280;1889;50.058;8.688;2023-04-24T02:48:42;98989.09;;;14.02;66.11
3748;BME280;1889;50.058;8.688;2023-04-24T02:51:12;98997.33;;;14.05;66.59
3748;BME280;1889;50.058;8.688;2023-04-24T02:53:41;98997.33;;;14.05;66.59
3748;BME280;1889;50.058;8.688;2023-04-24T02:56:10;99008.17;;;14.26;66.23
3748;BME280;1889;50.058;8.688;2023-04-24T02:58:41;99008.17;;;14.26;66.23
3748;BME280;1889;50.058;8.688;2023-04-24T03:01:11;99011.92;;;14.48;65.36
3748;BME280;1889;50.058;8.688;2023-04-24T03:03:40;99011.89;;;14.31;65.75
3748;BME280;1889;50.058;8.688;2023-04-24T03:06:10;99015.10;;;14.55;65.13
3748;BME280;1889;50.058;8.688;2023-04-24T03:08:39;99012.42;;;14.80;64.15
3748;BME280;1889;50.058;8.688;2023-04-24T03:11:08;99012.42;;;14.80;64.15
3748;BME280;1889;50.058;8.688;2023-04-24T03:13:38;99015.13;;;14.87;63.94
3748;BME280;1889;50.058;8.688;2023-04-24T03:16:07;99014.02;;;14.67;64.28
3748;BME280;1889;50.058;8.688;2023-04-24T03:18:37;99012.38;;;14.65;64.86
3748;BME280;1889;50.058;8.688;2023-04-24T03:21:06;99018.50;;;14.82;64.24
3748;BME280;1889;50.058;8.688;2023-04-24T03:23:35;99009.19;;;14.67;64.56
3748;BME280;1889;50.058;8.688;2023-04-24T03:26:05;99009.19;;;14.67;64.56
3748;BME280;1889;50.058;8.688;2023-04-24T03:28:34;99017.31;;;14.88;64.58
3748;BME280;1889;50.058;8.688;2023-04-24T03:31:04;99016.79;;;14.81;65.68
3748;BME280;1889;50.058;8.688;2023-04-24T03:33:33;99016.79;;;14.81;65.68
3748;BME280;1889;50.058;8.688;2023-04-24T03:36:02;99017.48;;;14.76;65.50
3748;BME280;1889;50.058;8.688;2023-04-24T03:38:33;99028.00;;;14.09;68.32
3748;BME280;1889;50.058;8.688;2023-04-24T03:41:02;99028.00;;;14.09;68.32
3748;BME280;1889;50.058;8.688;2023-04-24T03:43:31;99033.37;;;13.80;69.71
3748;BME280;1889;50.058;8.688;2023-04-24T03:46:02;99035.67;;;13.96;69.59
3748;BME280;1889;50.058;8.688;2023-04-24T03:48:31;99035.67;;;13.96;69.59
3748;BME280;1889;50.058;8.688;2023-04-24T03:51:01;99038.28;;;14.24;68.76
3748;BME280;1889;50.058;8.688;2023-04-24T03:53:30;99042.70;;;14.06;69.43
3748;BME280;1889;50.058;8.688;2023-04-24T03:56:00;99045.09;;;13.93;70.98
3748;BME280;1889;50.058;8.688;2023-04-24T03:58:29;99043.34;;;14.37;69.68
3748;BME280;1889;50.058;8.688;2023-04-24T04:00:58;99049.45;;;14.03;71.42
3748;BME280;1889;50.058;8.688;2023-04-24T04:03:28;99049.45;;;14.03;71.42
3748;BME280;1889;50.058;8.688;2023-04-24T04:05:57;99053.28;;;14.06;71.30
3748;BME280;1889;50.058;8.688;2023-04-24T04:08:26;99062.38;;;14.00;71.87
3748;BME280;1889;50.058;8.688;2023-04-24T04:10:56;99065.02;;;13.54;73.29
3748;BME280;1889;50.058;8.688;2023-04-24T04:13:25;99068.20;;;13.71;73.21
3748;BME280;1889;50.058;8.688;2023-04-24T04:15:54;99072.63;;;13.62;72.74
3748;BME280;1889;50.058;8.688;2023-04-24T04:18:24;99075.70;;;13.24;74.22
3748;BME280;1889;50.058;8.688;2023-04-24T04:20:53;99083.57;;;13.15;75.13
3748;BME280;1889;50.058;8.688;2023-04-24T04:23:23;99069.74;;;13.48;74.40
3748;BME280;1889;50.058;8.688;2023-04-24T04:25:52;99071.46;;;13.86;72.46
3748;BME280;1889;50.058;8.688;2023-04-24T04:28:22;99073.08;;;13.43;73.63
3748;BME280;1889;50.058;8.688;2023-04-24T04:30:53;99073.25;;;13.48;73.52
3748;BME280;1889;50.058;8.688;2023-04-24T04:33:25;99074.54;;;13.58;72.39
3748;BME280;1889;50.058;8.688;2023-04-24T04:35:54;99072.68;;;13.42;72.71
3748;BME280;1889;50.058;8.688;2023-04-24T04:38:24;99076.35;;;13.48;71.76
3748;BME280;1889;50.058;8.688;2023-04-24T04:40:56;99079.89;;;13.57;71.81
3748;BME280;1889;50.058;8.688;2023-04-24T04:43:25;99088.82;;;13.73;70.19
3748;BME280;1889;50.058;8.688;2023-04-24T04:45:54;99097.79;;;13.42;69.68
3748;BME280;1889;50.058;8.688;2023-04-24T04:48:24;99100.95;;;13.40;69.78
3748;BME280;1889;50.058;8.688;2023-04-24T04:50:53;99101.52;;;13.38;68.21
3748;BME280;1889;50.058;8.688;2023-04-24T04:53:23;99109.45;;;13.46;67.76
3748;BME280;1889;50.058;8.688;2023-04-24T04:55:52;99102.63;;;13.61;65.62
3748;BME280;1889;50.058;8.688;2023-04-24T04:58:21;99113.84;;;13.66;65.59
3748;BME280;1889;50.058;8.688;2023-04-24T05:00:51;99118.56;;;13.59;65.43
3748;BME280;1889;50.058;8.688;2023-04-24T05:03:20;99115.73;;;13.72;64.77
3748;BME280;1889;50.058;8.688;2023-04-24T05:05:49;99120.02;;;13.56;63.87
3748;BME280;1889;50.058;8.688;2023-04-24T05:08:19;99118.44;;;13.71;62.93
3748;BME280;1889;50.058;8.688;2023-04-24T05:10:48;99125.83;;;13.54;62.93
3748;BME280;1889;50.058;8.688;2023-04-24T05:13:17;99132.87;;;13.64;62.77
3748;BME280;1889;50.058;8.688;2023-04-24T05:15:47;99134.11;;;13.18;62.61
3748;BME280;1889;50.058;8.688;2023-04-24T05:18:16;99144.19;;;13.67;62.03
3748;BME280;1889;50.058;8.688;2023-04-24T05:20:46;99147.02;;;13.63;61.77
3748;BME280;1889;50.058;8.688;2023-04-24T05:23:15;99143.52;;;13.62;60.29
3748;BME280;1889;50.058;8.688;2023-04-24T05:25:45;99150.22;;;13.61;60.24
3748;BME280;1889;50.058;8.688;2023-04-24T05:28:14;99165.81;;;13.57;59.60
3748;BME280;1889;50.058;8.688;2023-04-24T05:30:44;99171.67;;;13.24;58.37
3748;BME280;1889;50.058;8.688;2023-04-24T05:33:13;99172.14;;;13.24;58.75
3748;BME280;1889;50.058;8.688;2023-04-24T05:35:43;99179.14;;;13.35;57.30
3748;BME280;1889;50.058;8.688;2023-04-24T05:38:14;99180.80;;;13.38;56.53
3748;BME280;1889;50.058;8.688;2023-04-24T05:40:45;99187.25;;;13.51;56.15
3748;BME280;1889;50.058;8.688;2023-04-24T05:43:14;99185.00;;;13.52;54.11
3748;BME280;1889;50.058;8.688;2023-04-24T05:45:44;99195.06;;;13.33;53.50
3748;BME280;1889;50.058;8.688;2023-04-24T05:48:13;99191.16;;;13.32;51.35
3748;BME280;1889;50.058;8.688;2023-04-24T05:50:43;99193.52;;;13.48;52.15
3748;BME280;1889;50.058;8.688;2023-04-24T05:53:12;99195.52;;;13.53;51.37
3748;BME280;1889;50.058;8.688;2023-04-24T05:55:41;99194.84;;;13.48;50.91
3748;BME280;1889;50.058;8.688;2023-04-24T05:58:11;99206.45;;;13.64;51.16
3748;BME280;1889;50.058;8.688;2023-04-24T06:00:41;99198.02;;;13.85;51.04
3748;BME280;1889;50.058;8.688;2023-04-24T06:03:12;99204.03;;;13.79;52.00
3748;BME280;1889;50.058;8.688;2023-04-24T06:05:41;99206.03;;;13.73;52.63
3748;BME280;1889;50.058;8.688;2023-04-24T06:08:10;99208.86;;;13.79;53.00
3748;BME280;1889;50.058;8.688;2023-04-24T06:10:40;99209.38;;;14.06;52.75
3748;BME280;1889;50.058;8.688;2023-04-24T06:13:09;99216.61;;;13.73;54.10
3748;BME280;1889;50.058;8.688;2023-04-24T06:15:39;99205.84;;;13.78;54.45
3748;BME280;1889;50.058;8.688;2023-04-24T06:18:09;99215.39;;;13.91;54.01
3748;BME280;1889;50.058;8.688;2023-04-24T06:20:41;99231.41;;;14.06;53.96
3748;BME280;1889;50.058;8.688;2023-04-24T06:23:11;99223.52;;;14.15;53.80
3748;BME280;1889;50.058;8.688;2023-04-24T06:25:40;99227.06;;;13.95;53.71
3748;BME280;1889;50.058;8.688;2023-04-24T06:28:09;99231.89;;;13.96;53.62
3748;BME280;1889;50.058;8.688;2023-04-24T06:30:39;99235.91;;;14.04;53.11
3748;BME280;1889;50.058;8.688;2023-04-24T06:33:09;99227.27;;;14.01;53.33
3748;BME280;1889;50.058;8.688;2023-04-24T06:35:38;99236.52;;;14.20;53.01
3748;BME280;1889;50.058;8.688;2023-04-24T06:38:08;99235.09;;;14.12;53.48
3748;BME280;1889;50.058;8.688;2023-04-24T06:40:37;99230.03;;;14.35;53.14
3748;BME280;1889;50.058;8.688;2023-04-24T06:43:06;99232.20;;;14.46;53.01
3748;BME280;1889;50.058;8.688;2023-04-24T06:45:36;99234.27;;;14.21;53.67
3748;BME280;1889;50.058;8.688;2023-04-24T06:48:06;99240.95;;;14.48;53.76
3748;BME280;1889;50.058;8.688;2023-04-24T06:50:35;99243.16;;;14.38;53.25
3748;BME280;1889;50.058;8.688;2023-04-24T06:53:05;99251.80;;;14.23;53.89
3748;BME280;1889;50.058;8.688;2023-04-24T06:55:36;99249.95;;;13.96;54.99
3748;BME280;1889;50.058;8.688;2023-04-24T06:58:05;99255.20;;;14.17;54.41
3748;BME280;1889;50.058;8.688;2023-04-24T07:00:34;99254.42;;;13.86;55.28
3748;BME280;1889;50.058;8.688;2023-04-24T07:03:04;99253.98;;;13.66;56.47
3748;BME280;1889;50.058;8.688;2023-04-24T07:05:33;99254.31;;;13.68;56.51
3748;BME280;1889;50.058;8.688;2023-04-24T07:08:03;99252.78;;;13.73;56.22
3748;BME280;1889;50.058;8.688;2023-04-24T07:10:33;99257.18;;;13.54;56.59
3748;BME280;1889;50.058;8.688;2023-04-24T07:13:03;99247.41;;;13.46;56.64
3748;BME280;1889;50.058;8.688;2023-04-24T07:15:32;99245.02;;;13.19;57.18
3748;BME280;1889;50.058;8.688;2023-04-24T07:18:02;99236.45;;;13.63;56.23
3748;BME280;1889;50.058;8.688;2023-04-24T07:20:31;99227.08;;;13.66;55.62
3748;BME280;1889;50.058;8.688;2023-04-24T07:23:01;99231.72;;;13.90;55.16
3748;BME280;1889;50.058;8.688;2023-04-24T07:25:31;99223.26;;;13.92;54.92
3748;BME280;1889;50.058;8.688;2023-04-24T07:28:00;99237.44;;;14.10;54.08
3748;BME280;1889;50.058;8.688;2023-04-24T07:30:29;99233.06;;;14.09;53.91
3748;BME280;1889;50.058;8.688;2023-04-24T07:33:00;99232.00;;;14.03;53.06
3748;BME280;1889;50.058;8.688;2023-04-24T07:35:30;99236.61;;;13.89;53.97
3748;BME280;1889;50.058;8.688;2023-04-24T07:37:59;99240.22;;;14.26;53.14
3748;BME280;1889;50.058;8.688;2023-04-24T07:40:28;99237.47;;;14.19;52.80
3748;BME280;1889;50.058;8.688;2023-04-24T07:42:58;99244.85;;;14.21;52.88
3748;BME280;1889;50.058;8.688;2023-04-24T07:45:28;99225.09;;;14.00;53.08
3748;BME280;1889;50.058;8.688;2023-04-24T07:47:57;99230.11;;;13.96;53.66
3748;BME280;1889;50.058;8.688;2023-04-24T07:50:26;99223.91;;;14.16;53.43
3748;BME280;1889;50.058;8.688;2023-04-24T07:52:56;99229.03;;;14.10;52.97
3748;BME280;1889;50.058;8.688;2023-04-24T07:55:25;99234.19;;;14.03;52.97
3748;BME280;1889;50.058;8.688;2023-04-24T07:57:54;99224.44;;;14.33;52.36
3748;BME280;1889;50.058;8.688;2023-04-24T08:00:24;99224.03;;;14.42;51.92
3748;BME280;1889;50.058;8.688;2023-04-24T08:02:53;99227.25;;;14.20;51.30
3748;BME280;1889;50.058;8.688;2023-04-24T08:05:22;99224.50;;;14.31;51.48
3748;BME280;1889;50.058;8.688;2023-04-24T08:07:53;99226.02;;;14.56;50.56
3748;BME280;1889;50.058;8.688;2023-04-24T08:10:23;99243.64;;;14.65;50.30
3748;BME280;1889;50.058;8.688;2023-04-24T08:12:53;99232.73;;;14.44;49.88
3748;BME280;1889;50.058;8.688;2023-04-24T08:15:23;99244.17;;;14.63;49.92
3748;BME280;1889;50.058;8.688;2023-04-24T08:17:53;99253.66;;;14.50;49.78
3748;BME280;1889;50.058;8.688;2023-04-24T08:20:22;99257.66;;;14.30;49.07
3748;BME280;1889;50.058;8.688;2023-04-24T08:22:51;99245.98;;;14.25;49.10
3748;BME280;1889;50.058;8.688;2023-04-24T08:25:22;99248.75;;;14.22;49.50
3748;BME280;1889;50.058;8.688;2023-04-24T08:27:54;99247.81;;;14.04;50.24
3748;BME280;1889;50.058;8.688;2023-04-24T08:30:23;99252.64;;;13.86;50.04
3748;BME280;1889;50.058;8.688;2023-04-24T08:32:53;99245.33;;;14.01;49.99
3748;BME280;1889;50.058;8.688;2023-04-24T08:35:22;99263.44;;;14.19;49.91
3748;BME280;1889;50.058;8.688;2023-04-24T08:37:52;99261.09;;;14.13;49.37
3748;BME280;1889;50.058;8.688;2023-04-24T08:40:26;99262.63;;;14.08;48.48
3748;BME280;1889;50.058;8.688;2023-04-24T08:42:55;99256.26;;;14.12;48.89
3748;BME280;1889;50.058;8.688;2023-04-24T08:45:25;99265.62;;;14.20;48.38
3748;BME280;1889;50.058;8.688;2023-04-24T08:47:54;99277.95;;;13.92;49.19
3748;BME280;1889;50.058;8.688;2023-04-24T08:50:25;99273.96;;;14.21;49.11
3748;BME280;1889;50.058;8.688;2023-04-24T08:52:54;99275.80;;;14.58;49.16
3748;BME280;1889;50.058;8.688;2023-04-24T08:55:25;99273.69;;;14.83;49.04
3748;BME280;1889;50.058;8.688;2023-04-24T08:57:55;99287.30;;;14.84;48.11
3748;BME280;1889;50.058;8.688;2023-04-24T09:00:24;99282.13;;;15.00;48.30
3748;BME280;1889;50.058;8.688;2023-04-24T09:02:55;99283.97;;;14.89;47.83
3748;BME280;1889;50.058;8.688;2023-04-24T09:05:25;99284.74;;;14.82;48.39
3748;BME280;1889;50.058;8.688;2023-04-24T09:07:56;99290.22;;;14.69;48.77
3748;BME280;1889;50.058;8.688;2023-04-24T09:10:26;99313.96;;;14.62;48.86
3748;BME280;1889;50.058;8.688;2023-04-24T09:12:59;99305.65;;;14.42;49.20
3748;BME280;1889;50.058;8.688;2023-04-24T09:15:30;99317.33;;;14.47;49.51
3748;BME280;1889;50.058;8.688;2023-04-24T09:17:59;99313.39;;;14.56;49.39
3748;BME280;1889;50.058;8.688;2023-04-24T09:20:28;99302.57;;;14.60;49.19
3748;BME280;1889;50.058;8.688;2023-04-24T09:22:58;99308.39;;;14.49;49.47
3748;BME280;1889;50.058;8.688;2023-04-24T09:25:34;99321.47;;;14.53;49.24
3748;BME280;1889;50.058;8.688;2023-04-24T09:28:05;99325.20;;;14.48;49.48
3748;BME280;1889;50.058;8.688;2023-04-24T09:30:34;99315.84;;;14.21;50.15
3748;BME280;1889;50.058;8.688;2023-04-24T09:33:14;99321.94;;;14.23;50.09
3748;BME280;1889;50.058;8.688;2023-04-24T09:35:51;99326.30;;;14.53;49.53
3748;BME280;1889;50.058;8.688;2023-04-24T09:38:35;99339.50;;;14.05;50.35
3748;BME280;1889;50.058;8.688;2023-04-24T09:41:15;99348.79;;;13.85;51.07
3748;BME280;1889;50.058;8.688;2023-04-24T09:43:46;99340.11;;;13.92;51.00
3748;BME280;1889;50.058;8.688;2023-04-24T09:46:18;99347.59;;;13.92;51.30
3748;BME280;1889;50.058;8.688;2023-04-24T09:48:49;99349.67;;;14.14;51.05
3748;BME280;1889;50.058;8.688;2023-04-24T09:51:20;99351.29;;;14.27;50.75
3748;BME280;1889;50.058;8.688;2023-04-24T09:53:52;99350.94;;;14.16;51.17
3748;BME280;1889;50.058;8.688;2023-04-24T09:56:21;99354.30;;;14.40;50.81
3748;BME280;1889;50.058;8.688;2023-04-24T09:58:51;99356.69;;;14.55;50.60
3748;BME280;1889;50.058;8.688;2023-04-24T10:01:31;99351.45;;;14.24;51.31
3748;BME280;1889;50.058;8.688;2023-04-24T10:04:01;99345.28;;;14.34;51.27
3748;BME280;1889;50.058;8.688;2023-04-24T10:06:34;99344.80;;;14.44;50.88
3748;BME280;1889;50.058;8.688;2023-04-24T10:09:04;99345.71;;;14.72;50.63
3748;BME280;1889;50.058;8.688;2023-04-24T10:11:34;99354.97;;;14.54;50.89
3748;BME280;1889;50.058;8.688;2023-04-24T10:14:04;99353.75;;;14.32;50.98
3748;BME280;1889;50.058;8.688;2023-04-24T10:16:34;99350.53;;;14.54;50.96
3748;BME280;1889;50.058;8.688;2023-04-24T10:19:04;99345.91;;;14.59;51.37
3748;BME280;1889;50.058;8.688;2023-04-24T10:21:34;99358.81;;;14.57;50.90
3748;BME280;1889;50.058;8.688;2023-04-24T10:24:04;99356.68;;;14.26;51.53
3748;BME280;1889;50.058;8.688;2023-04-24T10:26:35;99378.26;;;14.06;52.04
3748;BME280;1889;50.058;8.688;2023-04-24T10:29:06;99376.23;;;13.93;52.83
3748;BME280;1889;50.058;8.688;2023-04-24T10:31:37;99370.56;;;14.21;52.66
3748;BME280;1889;50.058;8.688;2023-04-24T10:34:09;99385.17;;;14.29;52.77
3748;BME280;1889;50.058;8.688;2023-04-24T10:36:41;99385.64;;;14.49;52.74
3748;BME280;1889;50.058;8.688;2023-04-24T10:39:12;99384.81;;;14.08;54.33
3748;BME280;1889;50.058;8.688;2023-04-24T10:41:43;99382.23;;;13.96;55.31
3748;BME280;1889;50.058;8.688;2023-04-24T10:44:14;99390.81;;;14.22;54.31
3748;BME280;1889;50.058;8.688;2023-04-24T10:46:46;99398.67;;;14.43;53.48
3748;BME280;1889;50.058;8.688;2023-04-24T10:49:29;99405.70;;;14.44;53.21
3748;BME280;1889;50.058;8.688;2023-04-24T10:52:05;99408.28;;;14.46;53.70
3748;BME280;1889;50.058;8.688;2023-04-24T10:54:42;99407.23;;;14.50;54.02
3748;BME280;1889;50.058;8.688;2023-04-24T11:00:09;99410.78;;;14.59;53.30
3748;BME280;1889;50.058;8.688;2023-04-24T11:02:35;99425.39;;;14.86;52.69
3748;BME280;1889;50.058;8.688;2023-04-24T11:04:55;99434.64;;;14.39;57.50
3748;BME280;1889;50.058;8.688;2023-04-24T11:07:25;99442.70;;;14.26;56.90
3748;BME280;1889;50.058;8.688;2023-04-24T11:10:00;99436.72;;;14.61;57.02
3748;BME280;1889;50.058;8.688;2023-04-24T11:12:31;99448.64;;;14.90;56.32
3748;BME280;1889;50.058;8.688;2023-04-24T11:15:01;99445.73;;;15.05;55.88
3748;BME280;1889;50.058;8.688;2023-04-24T11:17:38;99442.22;;;14.85;56.58
3748;BME280;1889;50.058;8.688;2023-04-24T11:20:18;99431.86;;;15.00;56.44
3748;BME280;1889;50.058;8.688;2023-04-24T11:22:48;99430.86;;;15.30;56.03
3748;BME280;1889;50.058;8.688;2023-04-24T11:25:19;99424.03;;;15.70;55.06
3748;BME280;1889;50.058;8.688;2023-04-24T11:27:51;99426.89;;;15.65;55.01
3748;BME280;1889;50.058;8.688;2023-04-24T11:30:21;99434.66;;;16.13;53.26
3748;BME280;1889;50.058;8.688;2023-04-24T11:32:51;99424.33;;;16.24;51.02
3748;BME280;1889;50.058;8.688;2023-04-24T11:35:22;99424.33;;;16.24;51.02
3748;BME280;1889;50.058;8.688;2023-04-24T11:37:53;99421.39;;;16.63;50.38
3748;BME280;1889;50.058;8.688;2023-04-24T11:40:23;99414.00;;;16.44;48.85
3748;BME280;1889;50.058;8.688;2023-04-24T11:42:54;99414.00;;;16.44;48.85
3748;BME280;1889;50.058;8.688;2023-04-24T11:45:29;99426.23;;;15.96;49.64
3748;BME280;1889;50.058;8.688;2023-04-24T11:47:59;99421.44;;;16.37;49.33
3748;BME280;1889;50.058;8.688;2023-04-24T11:50:29;99433.99;;;16.43;49.12
3748;BME280;1889;50.058;8.688;2023-04-24T11:52:58;99419.32;;;16.35;48.83
3748;BME280;1889;50.058;8.688;2023-04-24T11:55:29;99425.00;;;16.54;48.53
3748;BME280;1889;50.058;8.688;2023-04-24T11:57:59;99425.00;;;16.54;48.53
3748;BME280;1889;50.058;8.688;2023-04-24T12:00:31;99441.55;;;16.67;47.99
3748;BME280;1889;50.058;8.688;2023-04-24T12:03:08;99441.55;;;16.67;47.99
3748;BME280;1889;50.058;8.688;2023-04-24T12:05:39;99438.75;;;16.53;48.88
3748;BME280;1889;50.058;8.688;2023-04-24T12:08:08;99442.65;;;16.88;48.13
3748;BME280;1889;50.058;8.688;2023-04-24T12:10:38;99439.66;;;16.78;48.26
3748;BME280;1889;50.058;8.688;2023-04-24T12:13:08;99431.03;;;16.82;49.23
3748;BME280;1889;50.058;8.688;2023-04-24T12:15:40;99431.03;;;16.82;49.23
3748;BME280;1889;50.058;8.688;2023-04-24T12:18:12;99429.18;;;16.75;47.24
3748;BME280;1889;50.058;8.688;2023-04-24T12:20:41;99438.16;;;16.97;45.81
3748;BME280;1889;50.058;8.688;2023-04-24T12:23:11;99441.34;;;16.79;46.40
3748;BME280;1889;50.058;8.688;2023-04-24T12:25:40;99441.34;;;16.79;46.40
3748;BME280;1889;50.058;8.688;2023-04-24T12:28:11;99449.30;;;16.88;47.01
3748;BME280;1889;50.058;8.688;2023-04-24T12:30:43;99483.86;;;14.92;58.54
3748;BME280;1889;50.058;8.688;2023-04-24T12:33:16;99483.86;;;14.92;58.54
3748;BME280;1889;50.058;8.688;2023-04-24T12:35:44;99480.28;;;14.74;62.07
3748;BME280;1889;50.058;8.688;2023-04-24T12:38:15;99482.41;;;14.26;64.36
3748;BME280;1889;50.058;8.688;2023-04-24T12:40:46;99482.41;;;14.26;64.36
3748;BME280;1889;50.058;8.688;2023-04-24T12:43:16;99473.66;;;14.24;65.14
3748;BME280;1889;50.058;8.688;2023-04-24T12:45:47;99465.66;;;14.25;62.97
3748;BME280;1889;50.058;8.688;2023-04-24T12:48:17;99462.55;;;14.26;61.84
3748;BME280;1889;50.058;8.688;2023-04-24T12:50:46;99462.07;;;14.06;61.58
3748;BME280;1889;50.058;8.688;2023-04-24T12:53:15;99464.38;;;13.83;61.80
3748;BME280;1889;50.058;8.688;2023-04-24T12:55:45;99461.02;;;14.30;60.07
3748;BME280;1889;50.058;8.688;2023-04-24T12:58:16;99468.59;;;14.49;59.52
3748;BME280;1889;50.058;8.688;2023-04-24T13:00:45;99465.48;;;14.40;59.28
3748;BME280;1889;50.058;8.688;2023-04-24T13:03:15;99458.34;;;14.81;59.17
3748;BME280;1889;50.058;8.688;2023-04-24T13:05:44;99460.45;;;15.02;57.87
3748;BME280;1889;50.058;8.688;2023-04-24T13:08:13;99455.69;;;15.56;57.40
3748;BME280;1889;50.058;8.688;2023-04-24T13:10:42;99444.20;;;15.37;57.23
3748;BME280;1889;50.058;8.688;2023-04-24T13:13:12;99457.45;;;16.09;56.40
3748;BME280;1889;50.058;8.688;2023-04-24T13:15:41;99449.28;;;16.63;54.66
3748;BME280;1889;50.058;8.688;2023-04-24T13:18:10;99440.36;;;16.56;51.83
3748;BME280;1889;50.058;8.688;2023-04-24T13:20:40;99453.30;;;15.86;52.57
3748;BME280;1889;50.058;8.688;2023-04-24T13:23:09;99453.30;;;15.86;52.57
3748;BME280;1889;50.058;8.688;2023-04-24T13:25:39;99459.41;;;16.05;50.94
3748;BME280;1889;50.058;8.688;2023-04-24T13:28:08;99462.36;;;16.33;49.03
3748;BME280;1889;50.058;8.688;2023-04-24T13:30:38;99461.09;;;16.49;47.86
3748;BME280;1889;50.058;8.688;2023-04-24T13:33:07;99461.09;;;16.49;47.86
3748;BME280;1889;50.058;8.688;2023-04-24T13:35:36;99460.42;;;16.11;46.83
3748;BME280;1889;50.058;8.688;2023-04-24T13:38:05;99460.42;;;16.11;46.83
3748;BME280;1889;50.058;8.688;2023-04-24T13:40:35;99464.35;;;15.49;49.06